ADDS METAR Data INFO
IDs: Format: Raw Decoded Include TAF

Data at: 0258 UTC 22 Apr 2018

KMNZ 220255Z AUTO 35016G21KT 10SM OVC012 15/12 A3004 RMK AO2 T01480116
KMNZ 220235Z AUTO 35018G26KT 10SM OVC012 15/12 A3003 RMK AO2 T01520122
KMNZ 220215Z AUTO 35015G21KT 10SM OVC014 16/13 A3002 RMK AO2 LTG DSNT SE T01610130
KMNZ 220155Z AUTO 35017G20KT 10SM BKN016 OVC021 17/13 A3001 RMK AO2 T01680134
KMNZ 220140Z AUTO 36015G18KT 10SM BKN018 BKN025 18/14 A2999 RMK AO2 T01750139
KMNZ 220115Z AUTO 36017G21KT 10SM OVC022 18/14 A2997 RMK AO2 LTG DSNT E T01800136
KMNZ 220055Z AUTO 36014G21KT 10SM BKN024 BKN055 BKN090 19/13 A2995 RMK AO2 LTG DSNT SE T01860131
KMNZ 220035Z AUTO 01019G25KT 10SM SCT034 SCT049 BKN090 20/13 A2993 RMK AO2 T01980133
KMNZ 220015Z AUTO 36018G24KT 10SM SCT034 SCT047 BKN065 21/13 A2990 RMK AO2 LTG DSNT SE T02100132
KMNZ 212355Z AUTO 21013KT 10SM CLR 25/17 A2987 RMK AO2 LTG DSNT NE T02470166 10256 20165
KMNZ 212335Z AUTO 20016KT 10SM CLR 26/17 A2986 RMK AO2 T02550167
KMNZ 212315Z AUTO 18015G19KT 10SM CLR 25/17 A2986 RMK AO2 LTG DSNT NE T02530169
KMNZ 212255Z AUTO 19014KT 10SM CLR 25/17 A2986 RMK AO2 T02540173
KMNZ 212235Z AUTO 17016G20KT 10SM CLR 25/17 A2986 RMK AO2 LTG DSNT SE T02520172
KMNZ 212215Z AUTO 18014G19KT 10SM CLR 25/17 A2986 RMK AO2 LTG DSNT SE T02510169
KMNZ 212155Z AUTO 20015KT 10SM SCT029 SCT035 25/17 A2987 RMK AO2 T02520168
KMNZ 212135Z AUTO 17015KT 10SM OVC029 24/17 A2987 RMK AO2 T02370166
KMNZ 212115Z AUTO 17014G18KT 10SM BKN031 BKN039 24/16 A2988 RMK AO2 T02370164
KMNZ 212055Z AUTO 18012G18KT 10SM SCT020 SCT025 SCT034 24/16 A2989 RMK AO2 T02410164
KMNZ 212035Z AUTO 18015KT 10SM SCT017 SCT022 SCT029 23/17 A2990 RMK AO2 T02280170
KMNZ 212015Z AUTO 16013G16KT 10SM BKN015 22/19 A2990 RMK AO2 T02230185
KMNZ 211955Z AUTO 18013KT 10SM OVC011 21/18 A2992 RMK AO2 T02070179
KMNZ 211935Z AUTO 17011KT 10SM OVC009 20/18 A2993 RMK AO2 T01970181
KMNZ 211920Z AUTO 17010KT 10SM OVC007 19/18 A2994 RMK AO2 LTG DSNT E T01850180
KMNZ 211855Z AUTO 20007KT 10SM OVC007 17/17 A2997 RMK AO2 LTG DSNT E T01740173
KMNZ 211835Z AUTO 21010KT 10SM OVC007 17/17 A2997 RMK AO2 T01700170
KMNZ 211815Z AUTO 19013G19KT 10SM OVC005 17/17 A2996 RMK AO2 LTG DSNT E T01710171
KMNZ 211755Z AUTO 18013KT 10SM OVC003 16/16 A2997 RMK AO2 LTG DSNT E 60002 T01620162 10162 20122
KMNZ 211735Z AUTO 17011KT 7SM OVC003 16/16 A2997 RMK AO2 LTG DSNT NW THRU E T01550155
KMNZ 211715Z AUTO 18010KT 5SM BR OVC003 15/15 A2998 RMK AO2 LTG DSNT E T01470147
KMNZ 211655Z AUTO 16009KT 5SM BR OVC003 14/14 A2999 RMK AO2 LTG DSNT N T01430143
KMNZ 211635Z AUTO 17010KT 5SM BR OVC003 14/14 A3000 RMK AO2 T01400140
KMNZ 211615Z AUTO 17009KT 3SM BR OVC003 14/14 A3000 RMK AO2 LTG DSNT NE T01400140
KMNZ 211555Z AUTO 18009KT 2 1/2SM -DZ OVC003 14/14 A3000 RMK AO2 LTG DSNT NE AND NW P0002 T01360136
KMNZ 211535Z AUTO 18008KT 2SM DZ OVC003 14/14 A3000 RMK AO2 P0001 T01350135
KMNZ 211515Z AUTO 18009KT 2 1/2SM DZ OVC003 14/14 A2999 RMK AO2 P0001 T01350135
KMNZ 211455Z AUTO 17013KT 3SM -DZ OVC005 14/14 A2999 RMK AO2 T01360136
KMNZ 211435Z AUTO 17010KT 4SM VCTS BR OVC005 13/13 A2999 RMK AO2 LTG DSNT NW T01330133
KMNZ 211415Z AUTO 16010G18KT 5SM BR OVC005 13/13 A2998 RMK AO2 T01300130
KMNZ 211355Z AUTO 15016G21KT 4SM BR OVC005 13/13 A2996 RMK AO2 T01260126
KMNZ 211335Z AUTO 15013G18KT 4SM BR OVC005 13/13 A2998 RMK AO2 T01250125
KMNZ 211315Z AUTO 15012G19KT 3SM BR OVC005 12/12 A2998 RMK AO2 T01240124
KMNZ 211255Z AUTO 15014G18KT 3SM BR OVC005 12/12 A2998 RMK AO2 T01230123
KMNZ 211235Z AUTO 15013KT 4SM BR OVC005 12/12 A2999 RMK AO2 T01230123
KMNZ 211215Z AUTO 15013G17KT 4SM BR OVC005 12/12 A2999 RMK AO2 LTG DSNT N T01230123
KMNZ 211155Z AUTO 16013KT 4SM BR OVC005 12/12 A2999 RMK AO2 T01220122 10142 20120
KMNZ 211135Z AUTO 15013KT 5SM BR OVC005 12/12 A2999 RMK AO2 T01200120
KMNZ 211115Z AUTO 15011KT 5SM BR BKN005 OVC065 12/12 A2999 RMK AO2 T01210121
KMNZ 211055Z AUTO 14012KT 5SM BR OVC005 12/12 A2999 RMK AO2 T01210121
KMNZ 211035Z AUTO 14013KT 7SM BKN005 OVC011 12/12 A2999 RMK AO2 T01220122
KMNZ 211015Z AUTO 13010KT 7SM SCT005 BKN010 OVC043 12/12 A3001 RMK AO2 T01230123
KMNZ 210955Z AUTO 13011G16KT 10SM OVC010 12/12 A3001 RMK AO2 T01230123
KMNZ 210935Z AUTO 12013KT 10SM OVC012 12/12 A3001 RMK AO2 T01210121
KMNZ 210915Z AUTO 11006KT 7SM OVC014 12/12 A3004 RMK AO2 T01230123
KMNZ 210855Z AUTO 11007KT 7SM BKN014 OVC037 12/12 A3004 RMK AO2 T01240124
KMNZ 210835Z AUTO 12005KT 7SM -DZ OVC012 13/13 A3006 RMK AO2 T01250125
KMNZ 210815Z AUTO 13003KT 5SM DZ OVC014 13/12 A3005 RMK AO2 T01270119
KMNZ 210755Z AUTO 13005KT 7SM BKN016 OVC021 13/10 A3006 RMK AO2 T01320103
KMNZ 210735Z AUTO 13009KT 10SM OVC022 14/09 A3005 RMK AO2 T01400090
KMNZ 210715Z AUTO 14012G15KT 10SM OVC022 14/09 A3004 RMK AO2 LTG DSNT NW T01400085
KMNZ 210655Z AUTO 14011KT 10SM BKN024 OVC030 14/08 A3003 RMK AO2 T01410080
KMNZ 210635Z AUTO 14011KT 10SM BKN026 OVC031 14/08 A3002 RMK AO2 T01400076
KMNZ 210615Z AUTO 15014G18KT 10SM SCT026 BKN033 OVC038 14/07 A3003 RMK AO2 T01400074
KMNZ 210555Z AUTO 14015KT 10SM SCT032 OVC037 14/07 A3002 RMK AO2 T01420073 10197 20142 402150092
KMNZ 210535Z AUTO 14012G22KT 10SM OVC037 14/07 A3002 RMK AO2 T01440072
KMNZ 210515Z AUTO 17015G18KT 10SM OVC037 15/07 A3003 RMK AO2 T01450071
KMNZ 210455Z AUTO 15015KT 10SM OVC040 15/07 A3005 RMK AO2 T01460072
KMNZ 210435Z AUTO 15014G17KT 10SM OVC042 15/07 A3005 RMK AO2 T01470073
KMNZ 210415Z AUTO 16011G17KT 10SM OVC042 15/07 A3006 RMK AO2 T01490073
KMNZ 210355Z AUTO 16012KT 10SM BKN042 15/07 A3006 RMK AO2 T01490072
KMNZ 210335Z AUTO 15015KT 10SM CLR 14/07 A3005 RMK AO2 T01440072
KMNZ 210315Z AUTO 15012KT 10SM CLR 15/07 A3005 RMK AO2 T01470073
KMNZ 210255Z AUTO 15012KT 10SM CLR 15/07 A3005 RMK AO2 T01510072
KMNZ 210235Z AUTO 15013KT 10SM CLR 16/07 A3005 RMK AO2 T01550072
KMNZ 210215Z AUTO 14012KT 10SM CLR 16/07 A3005 RMK AO2 T01600071
KMNZ 210155Z AUTO 15012G16KT 10SM SCT050 17/07 A3004 RMK AO2 T01650070
KMNZ 210135Z AUTO 14012G18KT 10SM BKN050 17/07 A3004 RMK AO2 T01710068
KMNZ 210115Z AUTO 14011KT 10SM BKN050 18/07 A3004 RMK AO2 T01770067
KMNZ 210055Z AUTO 15012G18KT 10SM SCT055 18/07 A3004 RMK AO2 T01800065
KMNZ 210035Z AUTO 14012G19KT 10SM CLR 19/07 A3004 RMK AO2 T01860068
KMNZ 210015Z AUTO 14012G19KT 10SM CLR 20/07 A3005 RMK AO2 T01950066
KMNZ 202355Z AUTO 15013KT 10SM CLR 20/07 A3007 RMK AO2 T01980066 10215 20181
KMNZ 202335Z AUTO 14012G15KT 10SM CLR 21/07 A3007 RMK AO2 T02050065
KMNZ 202315Z AUTO 15015G19KT 10SM CLR 21/06 A3006 RMK AO2 T02070059
KMNZ 202255Z AUTO 16016G20KT 10SM CLR 21/06 A3007 RMK AO2 T02110058
KMNZ 202235Z AUTO 14015G19KT 10SM CLR 21/07 A3007 RMK AO2 T02120070
KMNZ 202215Z AUTO 13010G19KT 10SM CLR 21/07 A3007 RMK AO2 T02110067
KMNZ 202155Z AUTO 14011G18KT 10SM CLR 21/06 A3007 RMK AO2 T02120063
KMNZ 202135Z AUTO 14014G20KT 10SM SCT047 21/06 A3008 RMK AO2 T02110063
KMNZ 202115Z AUTO 16015G21KT 10SM CLR 21/07 A3010 RMK AO2 T02120067
KMNZ 202055Z AUTO 14013G22KT 10SM CLR 21/07 A3011 RMK AO2 LTG DSNT N T02120067
KMNZ 202035Z AUTO 15014KT 10SM CLR 21/07 A3012 RMK AO2 LTG DSNT N T02120068
KMNZ 202015Z AUTO 14014G19KT 10SM CLR 21/06 A3014 RMK AO2 T02060063
KMNZ 201955Z AUTO 13012G22KT 10SM CLR 20/07 A3015 RMK AO2 T02040068
KMNZ 201935Z AUTO 13015G20KT 10SM CLR 20/07 A3015 RMK AO2 T01970065
KMNZ 201915Z AUTO 13015G22KT 10SM CLR 20/07 A3017 RMK AO2 T01960066
KMNZ 201855Z AUTO 13013G19KT 10SM CLR 19/06 A3018 RMK AO2 LTG DSNT N T01910062
KMNZ 201835Z AUTO 13013G18KT 10SM SCT080 19/06 A3019 RMK AO2 T01890063
KMNZ 201815Z AUTO 13014G20KT 10SM BKN080 19/06 A3021 RMK AO2 T01870063
KMNZ 201755Z AUTO 14014G21KT 10SM BKN080 18/06 A3021 RMK AO2 T01770061 10182 20092
KMNZ 201735Z AUTO 14014G19KT 10SM BKN080 18/07 A3022 RMK AO2 T01790066
KMNZ 201715Z AUTO 12015G18KT 10SM CLR 18/07 A3024 RMK AO2 T01750065
KMNZ 201655Z AUTO 14015KT 10SM CLR 17/06 A3024 RMK AO2 T01700064
KMNZ 201635Z AUTO 13017G20KT 10SM CLR 16/06 A3025 RMK AO2 LTG DSNT N T01630062
KMNZ 201615Z AUTO 12015KT 10SM CLR 16/06 A3025 RMK AO2 T01580064
KMNZ 201555Z AUTO 14014G20KT 10SM CLR 15/06 A3025 RMK AO2 T01500061
KMNZ 201535Z AUTO 14016KT 10SM CLR 15/07 A3024 RMK AO2 T01540066
KMNZ 201515Z AUTO 13015G22KT 10SM CLR 15/07 A3024 RMK AO2 T01480066